Time;durP1;ratioP1;P1;durP2;ratioP2;P2;SDS_P1;SDS_P2;PMS_P1;PMS_P2;Temp;Humidity;BMP_temperature;BMP_pressure;BME280_temperature;BME280_humidity;BME280_pressure;Samples;Min_cycle;Max_cycle;Signal;HPM_P1;HPM_P2
2022/10/10 00:01:32;;;;;;;1.00;1.00;;;;;;;;;;4949249;28;20218;-63
2022/10/10 00:03:58;;;;;;;1.20;1.20;;;;;;;;;;4944851;28;20805;-67
2022/10/10 00:06:24;;;;;;;1.00;1.00;;;;;;;;;;4941227;28;20277;-65
2022/10/10 00:08:50;;;;;;;1.10;1.10;;;;;;;;;;4949979;28;20321;-65
2022/10/10 00:11:16;;;;;;;1.07;1.07;;;;;;;;;;4931725;28;20230;-67
2022/10/10 00:13:42;;;;;;;1.20;1.20;;;;;;;;;;4940930;28;20233;-67
2022/10/10 00:16:08;;;;;;;1.43;1.43;;;;;;;;;;4934205;28;20303;-66
2022/10/10 00:18:34;;;;;;;1.10;1.10;;;;;;;;;;4953681;28;20242;-66
2022/10/10 00:21:00;;;;;;;1.57;1.57;;;;;;;;;;4938288;28;20231;-68
2022/10/10 00:23:26;;;;;;;1.40;1.40;;;;;;;;;;4962917;28;20274;-64
2022/10/10 00:25:52;;;;;;;1.10;1.10;;;;;;;;;;4969772;28;20827;-66
2022/10/10 00:28:18;;;;;;;1.40;1.40;;;;;;;;;;4958515;28;20218;-67
2022/10/10 00:30:44;;;;;;;1.40;1.40;;;;;;;;;;4945308;28;20229;-66
2022/10/10 00:33:10;;;;;;;1.10;1.10;;;;;;;;;;4949493;28;20231;-68
2022/10/10 00:35:36;;;;;;;1.10;1.10;;;;;;;;;;4946543;28;20259;-67
2022/10/10 00:38:02;;;;;;;1.10;1.10;;;;;;;;;;4941757;28;20230;-68
2022/10/10 00:40:28;;;;;;;0.80;0.80;;;;;;;;;;4949002;28;20218;-65
2022/10/10 00:42:54;;;;;;;1.00;1.00;;;;;;;;;;4945312;28;20233;-68
2022/10/10 00:45:20;;;;;;;1.10;1.10;;;;;;;;;;4955750;28;20230;-67
2022/10/10 00:47:46;;;;;;;1.10;1.10;;;;;;;;;;4962951;28;20689;-68
2022/10/10 00:50:12;;;;;;;1.23;1.23;;;;;;;;;;4950657;28;20242;-67
2022/10/10 00:52:38;;;;;;;0.90;0.90;;;;;;;;;;4942161;28;20230;-65
2022/10/10 00:55:04;;;;;;;1.00;1.00;;;;;;;;;;4926600;28;20234;-64
2022/10/10 00:57:30;;;;;;;0.90;0.90;;;;;;;;;;4946240;28;20840;-67
2022/10/10 00:59:56;;;;;;;1.00;1.00;;;;;;;;;;4945296;28;20217;-64
2022/10/10 01:02:22;;;;;;;0.90;0.90;;;;;;;;;;4927754;28;20441;-65
2022/10/10 01:04:48;;;;;;;1.00;1.00;;;;;;;;;;4951765;28;20724;-68
2022/10/10 01:07:24;;;;;;;1.10;1.10;;;;;;;;;;4951299;28;20227;-66
2022/10/10 01:09:50;;;;;;;1.00;1.00;;;;;;;;;;4957435;28;20231;-68
2022/10/10 01:12:16;;;;;;;1.10;1.10;;;;;;;;;;4931787;28;20239;-66
2022/10/10 01:14:47;;;;;;;1.00;1.00;;;;;;;;;;4956098;28;20258;-65
2022/10/10 01:17:30;;;;;;;0.90;0.90;;;;;;;;;;4946192;28;20339;-67
2022/10/10 01:20:14;;;;;;;0.90;0.90;;;;;;;;;;4936361;28;20235;-68
2022/10/10 01:22:49;;;;;;;0.80;0.80;;;;;;;;;;4936622;28;20223;-65
2022/10/10 01:25:31;;;;;;;1.10;1.10;;;;;;;;;;4934078;28;20236;-65
2022/10/10 01:28:06;;;;;;;1.03;1.03;;;;;;;;;;4918801;28;20612;-65
2022/10/10 01:30:32;;;;;;;1.10;1.10;;;;;;;;;;4940492;28;20241;-69
2022/10/10 01:33:01;;;;;;;1.10;1.10;;;;;;;;;;4936165;28;20230;-66
2022/10/10 01:35:30;;;;;;;1.20;1.20;;;;;;;;;;4938144;28;20223;-67
2022/10/10 01:38:14;;;;;;;1.10;1.10;;;;;;;;;;4930530;28;20794;-67
2022/10/10 01:40:53;;;;;;;1.03;1.03;;;;;;;;;;4945512;28;20226;-67
2022/10/10 01:43:19;;;;;;;1.20;1.20;;;;;;;;;;4935395;28;20694;-66
2022/10/10 01:45:49;;;;;;;1.10;1.10;;;;;;;;;;4947550;28;20330;-67
2022/10/10 01:48:15;;;;;;;1.20;1.20;;;;;;;;;;4950442;28;20218;-66
2022/10/10 01:51:07;;;;;;;1.10;1.10;;;;;;;;;;4926238;28;20222;-68
2022/10/10 01:53:44;;;;;;;1.10;1.10;;;;;;;;;;4935226;28;20319;-67
2022/10/10 01:56:21;;;;;;;1.20;1.20;;;;;;;;;;4937681;28;20229;-65
2022/10/10 01:58:58;;;;;;;1.40;1.40;;;;;;;;;;4921592;28;20262;-68
2022/10/10 02:01:30;;;;;;;1.30;1.30;;;;;;;;;;4933105;28;20222;-68
2022/10/10 02:04:02;;;;;;;1.20;1.20;;;;;;;;;;4931928;28;20920;-65
2022/10/10 02:06:30;;;;;;;1.50;1.50;;;;;;;;;;4930531;28;20779;-66
2022/10/10 02:09:03;;;;;;;1.50;1.50;;;;;;;;;;4947483;28;20233;-67
2022/10/10 02:11:29;;;;;;;1.30;1.30;;;;;;;;;;4934156;28;20719;-66
2022/10/10 02:13:56;;;;;;;1.40;1.40;;;;;;;;;;4934635;28;20305;-66
2022/10/10 02:16:23;;;;;;;1.10;1.10;;;;;;;;;;4924959;28;20239;-67
2022/10/10 02:18:50;;;;;;;1.30;1.30;;;;;;;;;;4929784;28;20228;-66
2022/10/10 02:21:16;;;;;;;1.47;1.47;;;;;;;;;;4937699;28;20318;-67
2022/10/10 02:23:43;;;;;;;1.40;1.40;;;;;;;;;;4932849;28;20251;-67
2022/10/10 02:26:10;;;;;;;1.40;1.40;;;;;;;;;;4947459;28;20234;-66
2022/10/10 02:28:40;;;;;;;1.70;1.70;;;;;;;;;;4938892;28;20302;-66
2022/10/10 02:31:07;;;;;;;2.20;2.10;;;;;;;;;;4939226;28;20308;-64
2022/10/10 02:33:36;;;;;;;2.20;2.10;;;;;;;;;;4921031;28;20239;-63
2022/10/10 02:36:02;;;;;;;2.27;2.17;;;;;;;;;;4936445;28;20688;-68
2022/10/10 02:38:28;;;;;;;2.00;1.90;;;;;;;;;;4920346;28;20226;-67
2022/10/10 02:40:53;;;;;;;2.00;1.90;;;;;;;;;;4932395;28;20293;-67
2022/10/10 02:43:19;;;;;;;1.40;1.40;;;;;;;;;;4938058;28;20287;-65
2022/10/10 02:45:45;;;;;;;1.50;1.50;;;;;;;;;;4946473;28;20796;-65
2022/10/10 02:48:11;;;;;;;1.47;1.47;;;;;;;;;;4938783;28;20227;-64
2022/10/10 02:50:37;;;;;;;1.40;1.40;;;;;;;;;;4932980;28;20575;-67
2022/10/10 02:53:03;;;;;;;1.40;1.40;;;;;;;;;;4941447;28;20243;-67
2022/10/10 02:55:29;;;;;;;1.10;1.10;;;;;;;;;;4933861;28;20648;-64
2022/10/10 02:57:55;;;;;;;1.10;1.10;;;;;;;;;;4931823;28;20222;-65
2022/10/10 03:00:21;;;;;;;1.20;1.20;;;;;;;;;;4942499;28;20234;-66
2022/10/10 03:02:47;;;;;;;1.10;1.10;;;;;;;;;;4939294;28;20237;-67
2022/10/10 03:05:13;;;;;;;1.30;1.30;;;;;;;;;;4935889;28;20236;-64
2022/10/10 03:07:39;;;;;;;1.20;1.20;;;;;;;;;;4927149;28;20625;-64
2022/10/10 03:10:06;;;;;;;1.30;1.30;;;;;;;;;;4938983;28;20222;-65
2022/10/10 03:12:32;;;;;;;1.10;1.10;;;;;;;;;;4949656;28;20311;-66
2022/10/10 03:14:58;;;;;;;1.30;1.30;;;;;;;;;;4944881;28;20238;-68
2022/10/10 03:17:24;;;;;;;1.20;1.20;;;;;;;;;;4914244;28;20594;-67
2022/10/10 03:19:50;;;;;;;1.20;1.20;;;;;;;;;;4909957;28;20656;-65
2022/10/10 03:22:16;;;;;;;1.00;1.00;;;;;;;;;;4919112;28;20231;-66
2022/10/10 03:24:42;;;;;;;1.20;1.20;;;;;;;;;;4925628;28;20293;-68
2022/10/10 03:27:08;;;;;;;1.20;1.20;;;;;;;;;;4917944;28;20232;-67
2022/10/10 03:29:34;;;;;;;1.20;1.20;;;;;;;;;;4928548;28;20211;-64
2022/10/10 03:31:59;;;;;;;1.40;1.40;;;;;;;;;;4924750;28;20314;-64
2022/10/10 03:34:26;;;;;;;1.20;1.20;;;;;;;;;;4904055;28;20220;-67
2022/10/10 03:36:51;;;;;;;1.20;1.20;;;;;;;;;;4922488;28;20221;-66
2022/10/10 03:39:17;;;;;;;1.10;1.10;;;;;;;;;;4931999;28;20240;-64
2022/10/10 03:41:43;;;;;;;1.10;1.10;;;;;;;;;;4922511;28;20226;-65
2022/10/10 03:44:09;;;;;;;1.30;1.30;;;;;;;;;;4932958;28;20232;-65
2022/10/10 03:46:35;;;;;;;1.10;1.10;;;;;;;;;;4897207;28;20243;-64
2022/10/10 03:49:01;;;;;;;1.20;1.20;;;;;;;;;;4905268;28;20224;-67
2022/10/10 03:51:27;;;;;;;1.30;1.30;;;;;;;;;;4934810;28;20222;-68
2022/10/10 03:53:53;;;;;;;1.10;1.10;;;;;;;;;;4931521;28;20273;-67
2022/10/10 03:56:19;;;;;;;1.30;1.30;;;;;;;;;;4924918;28;20753;-67
2022/10/10 03:58:45;;;;;;;1.30;1.30;;;;;;;;;;4922152;28;20224;-67
2022/10/10 04:01:11;;;;;;;1.50;1.50;;;;;;;;;;4912121;28;20239;-67
2022/10/10 04:03:37;;;;;;;1.40;1.40;;;;;;;;;;4910959;28;20901;-67
2022/10/10 04:06:04;;;;;;;1.60;1.60;;;;;;;;;;4899064;28;20242;-64
2022/10/10 04:08:30;;;;;;;1.43;1.43;;;;;;;;;;4924328;28;20249;-67
2022/10/10 04:10:56;;;;;;;1.53;1.53;;;;;;;;;;4924956;28;20222;-65
2022/10/10 04:13:24;;;;;;;1.60;1.60;;;;;;;;;;4911225;28;20727;-68
2022/10/10 04:15:50;;;;;;;1.10;1.10;;;;;;;;;;4927535;28;20350;-67
2022/10/10 04:18:16;;;;;;;1.03;1.03;;;;;;;;;;4947251;28;20227;-67
2022/10/10 04:20:42;;;;;;;1.20;1.20;;;;;;;;;;4942036;28;20554;-65
2022/10/10 04:23:08;;;;;;;1.10;1.10;;;;;;;;;;4939253;28;20275;-66
2022/10/10 04:25:34;;;;;;;1.10;1.10;;;;;;;;;;4945663;28;20237;-67
2022/10/10 04:28:00;;;;;;;1.33;1.33;;;;;;;;;;4952407;28;20257;-65
2022/10/10 04:30:26;;;;;;;1.30;1.30;;;;;;;;;;4931823;28;20231;-67
2022/10/10 04:32:52;;;;;;;1.20;1.20;;;;;;;;;;4948854;28;20521;-64
2022/10/10 04:35:18;;;;;;;1.40;1.40;;;;;;;;;;4949009;28;20233;-67
2022/10/10 04:37:45;;;;;;;1.10;1.10;;;;;;;;;;4941430;28;20312;-66
2022/10/10 04:40:11;;;;;;;1.10;1.10;;;;;;;;;;4931424;28;20287;-66
2022/10/10 04:42:37;;;;;;;1.10;1.10;;;;;;;;;;4939703;28;20713;-67
2022/10/10 04:45:03;;;;;;;1.10;1.10;;;;;;;;;;4934404;28;20706;-67
2022/10/10 04:47:29;;;;;;;1.40;1.40;;;;;;;;;;4944138;28;21394;-67
2022/10/10 04:49:55;;;;;;;1.10;1.10;;;;;;;;;;4932400;28;20271;-66
2022/10/10 04:52:21;;;;;;;1.17;1.17;;;;;;;;;;4937553;28;20691;-67
2022/10/10 04:54:47;;;;;;;1.20;1.20;;;;;;;;;;4930770;28;20332;-68
2022/10/10 04:57:13;;;;;;;1.10;1.10;;;;;;;;;;4934419;28;20225;-65
2022/10/10 04:59:39;;;;;;;1.10;1.10;;;;;;;;;;4915582;28;20234;-66
2022/10/10 05:02:05;;;;;;;1.10;1.10;;;;;;;;;;4925228;28;20218;-66
2022/10/10 05:04:31;;;;;;;1.20;1.20;;;;;;;;;;4934988;28;20233;-64
2022/10/10 05:06:57;;;;;;;1.20;1.20;;;;;;;;;;4960867;28;20309;-63
2022/10/10 05:09:23;;;;;;;1.20;1.20;;;;;;;;;;4937467;28;20249;-68
2022/10/10 05:11:49;;;;;;;1.13;1.13;;;;;;;;;;4937069;28;20230;-65
2022/10/10 05:14:15;;;;;;;1.10;1.10;;;;;;;;;;4931427;28;20234;-67
2022/10/10 05:16:41;;;;;;;1.10;1.10;;;;;;;;;;4937265;28;20358;-67
2022/10/10 05:19:07;;;;;;;1.20;1.20;;;;;;;;;;4949823;28;20225;-67
2022/10/10 05:21:33;;;;;;;1.10;1.10;;;;;;;;;;4926054;28;20234;-67
2022/10/10 05:23:59;;;;;;;1.10;1.10;;;;;;;;;;4955093;28;20225;-67
2022/10/10 05:26:25;;;;;;;1.20;1.20;;;;;;;;;;4937890;28;20360;-68
2022/10/10 05:28:51;;;;;;;1.23;1.23;;;;;;;;;;4932954;28;20230;-69
2022/10/10 05:31:17;;;;;;;1.23;1.23;;;;;;;;;;4943537;28;20235;-64
2022/10/10 05:33:43;;;;;;;1.20;1.20;;;;;;;;;;4939754;28;20297;-58
2022/10/10 05:36:10;;;;;;;1.10;1.10;;;;;;;;;;4906341;28;20223;-56
2022/10/10 05:38:37;;;;;;;1.03;1.03;;;;;;;;;;4944229;28;20234;-57
2022/10/10 05:41:03;;;;;;;1.10;1.10;;;;;;;;;;4942029;28;20230;-59
2022/10/10 05:43:29;;;;;;;1.37;1.37;;;;;;;;;;4954020;28;20237;-57
2022/10/10 05:45:55;;;;;;;1.30;1.30;;;;;;;;;;4952408;28;20233;-57
2022/10/10 05:48:21;;;;;;;1.10;1.10;;;;;;;;;;4956765;28;20367;-58
2022/10/10 05:50:56;;;;;;;1.10;1.10;;;;;;;;;;4947348;28;20623;-57
2022/10/10 05:53:23;;;;;;;1.10;1.10;;;;;;;;;;4950503;28;20224;-57
2022/10/10 05:55:49;;;;;;;1.20;1.20;;;;;;;;;;4964612;28;20256;-58
2022/10/10 05:58:15;;;;;;;1.00;1.00;;;;;;;;;;4954965;28;20308;-57
2022/10/10 06:00:41;;;;;;;1.10;1.10;;;;;;;;;;4939921;28;20229;-57
2022/10/10 06:03:11;;;;;;;1.00;1.00;;;;;;;;;;4936703;28;20222;-57
2022/10/10 06:05:37;;;;;;;0.90;0.90;;;;;;;;;;4934949;28;20676;-58
2022/10/10 06:08:03;;;;;;;1.10;1.10;;;;;;;;;;4957422;28;20312;-57
2022/10/10 06:10:29;;;;;;;1.00;1.00;;;;;;;;;;4958984;28;20222;-58
2022/10/10 06:12:55;;;;;;;1.10;1.10;;;;;;;;;;4958078;28;20699;-58
2022/10/10 06:15:21;;;;;;;1.10;1.10;;;;;;;;;;4947601;28;20317;-58
2022/10/10 06:17:46;;;;;;;1.20;1.20;;;;;;;;;;4951675;28;20863;-57
2022/10/10 06:20:12;;;;;;;1.20;1.20;;;;;;;;;;4950927;28;20363;-58
2022/10/10 06:22:38;;;;;;;1.00;1.00;;;;;;;;;;4956545;28;20219;-58
2022/10/10 06:25:04;;;;;;;1.00;1.00;;;;;;;;;;4952703;28;20223;-57
2022/10/10 06:27:30;;;;;;;1.00;1.00;;;;;;;;;;4955452;28;20273;-58
2022/10/10 06:29:56;;;;;;;1.20;1.20;;;;;;;;;;4951157;28;20242;-58
2022/10/10 06:32:22;;;;;;;1.00;1.00;;;;;;;;;;4961031;28;20258;-57
2022/10/10 06:34:48;;;;;;;1.03;1.03;;;;;;;;;;4944760;28;20241;-58
2022/10/10 06:37:14;;;;;;;1.30;1.30;;;;;;;;;;4949193;28;20995;-57
2022/10/10 06:39:40;;;;;;;1.10;1.10;;;;;;;;;;4949918;28;20281;-57
2022/10/10 06:42:06;;;;;;;1.10;1.10;;;;;;;;;;4946999;28;20231;-58
2022/10/10 06:44:32;;;;;;;1.10;1.10;;;;;;;;;;4944835;28;20730;-57
2022/10/10 06:46:58;;;;;;;1.10;1.10;;;;;;;;;;4945690;28;20712;-57
2022/10/10 06:49:24;;;;;;;1.20;1.20;;;;;;;;;;4955117;28;20232;-58
2022/10/10 06:51:50;;;;;;;1.03;1.03;;;;;;;;;;4949741;28;20700;-57
2022/10/10 06:54:16;;;;;;;1.30;1.30;;;;;;;;;;4941537;28;20236;-58
2022/10/10 06:56:42;;;;;;;1.00;1.00;;;;;;;;;;4961983;28;20254;-57
2022/10/10 06:59:08;;;;;;;1.20;1.20;;;;;;;;;;4947094;28;20304;-57
2022/10/10 07:01:34;;;;;;;1.20;1.20;;;;;;;;;;4946632;28;20779;-58
2022/10/10 07:04:00;;;;;;;1.20;1.20;;;;;;;;;;4949885;28;20233;-58
2022/10/10 07:06:26;;;;;;;1.10;1.10;;;;;;;;;;4941553;28;20843;-57
2022/10/10 07:08:52;;;;;;;1.00;1.00;;;;;;;;;;4946458;28;20271;-57
2022/10/10 07:11:18;;;;;;;1.03;1.03;;;;;;;;;;4949276;28;20331;-57
2022/10/10 07:13:44;;;;;;;1.10;1.10;;;;;;;;;;4940202;28;27678;-58
2022/10/10 07:16:10;;;;;;;0.90;0.90;;;;;;;;;;4958819;28;20282;-57
2022/10/10 07:18:36;;;;;;;1.00;1.00;;;;;;;;;;4933903;28;20234;-58
2022/10/10 07:21:02;;;;;;;0.90;0.90;;;;;;;;;;4942817;28;20221;-58
2022/10/10 07:23:30;;;;;;;0.90;0.90;;;;;;;;;;4956060;28;20313;-59
2022/10/10 07:26:04;;;;;;;1.00;1.00;;;;;;;;;;4959965;28;20226;-58
2022/10/10 07:28:30;;;;;;;0.80;0.80;;;;;;;;;;4954807;28;20642;-58
2022/10/10 07:31:00;;;;;;;0.80;0.80;;;;;;;;;;4940479;28;20219;-58
2022/10/10 07:33:26;;;;;;;1.00;1.00;;;;;;;;;;4934852;28;20613;-57
2022/10/10 07:35:53;;;;;;;1.10;1.10;;;;;;;;;;4949399;28;20221;-59
2022/10/10 07:38:19;;;;;;;1.00;1.00;;;;;;;;;;4955538;28;20597;-58
2022/10/10 07:40:45;;;;;;;1.07;1.07;;;;;;;;;;4948799;28;20226;-59
2022/10/10 07:43:11;;;;;;;1.00;1.00;;;;;;;;;;4945738;28;20318;-59
2022/10/10 07:45:37;;;;;;;1.00;1.00;;;;;;;;;;4939866;28;20206;-60
2022/10/10 07:48:03;;;;;;;0.80;0.80;;;;;;;;;;4945428;28;20255;-59
2022/10/10 07:50:29;;;;;;;1.00;1.00;;;;;;;;;;4952086;28;20774;-60
2022/10/10 07:52:55;;;;;;;0.87;0.87;;;;;;;;;;4944542;28;20684;-59
2022/10/10 07:55:21;;;;;;;0.80;0.80;;;;;;;;;;4947414;28;20231;-59
2022/10/10 07:57:47;;;;;;;0.90;0.90;;;;;;;;;;4952915;28;20747;-58
2022/10/10 08:00:14;;;;;;;0.80;0.80;;;;;;;;;;4933533;28;20591;-58
2022/10/10 08:02:40;;;;;;;0.77;0.77;;;;;;;;;;4936564;28;20243;-60
2022/10/10 08:05:06;;;;;;;0.90;0.90;;;;;;;;;;4935075;28;20316;-60
2022/10/10 08:07:32;;;;;;;0.73;0.73;;;;;;;;;;4938429;28;20433;-59
2022/10/10 08:09:58;;;;;;;0.90;0.90;;;;;;;;;;4926100;28;20231;-59
2022/10/10 08:12:24;;;;;;;0.80;0.80;;;;;;;;;;4933405;28;20349;-59
2022/10/10 08:14:50;;;;;;;0.80;0.80;;;;;;;;;;4930534;28;20289;-58
2022/10/10 08:17:16;;;;;;;0.90;0.90;;;;;;;;;;4941216;28;20318;-59
2022/10/10 08:19:42;;;;;;;0.70;0.70;;;;;;;;;;4933011;28;20222;-59
2022/10/10 08:22:08;;;;;;;0.90;0.90;;;;;;;;;;4929511;28;20360;-58
2022/10/10 08:24:34;;;;;;;0.80;0.80;;;;;;;;;;4938194;28;20978;-59
2022/10/10 08:27:00;;;;;;;0.90;0.90;;;;;;;;;;4930300;28;20707;-59
2022/10/10 08:29:26;;;;;;;0.80;0.80;;;;;;;;;;4936842;28;20787;-59
2022/10/10 08:31:52;;;;;;;0.97;0.97;;;;;;;;;;4937429;28;21310;-58
2022/10/10 08:34:17;;;;;;;1.00;1.00;;;;;;;;;;4937398;28;20601;-59
2022/10/10 08:36:43;;;;;;;1.03;1.03;;;;;;;;;;4943970;28;20748;-58
2022/10/10 08:39:10;;;;;;;0.87;0.87;;;;;;;;;;4956064;28;20231;-59
2022/10/10 08:41:38;;;;;;;0.80;0.80;;;;;;;;;;4934018;28;20280;-60
2022/10/10 08:44:06;;;;;;;0.80;0.80;;;;;;;;;;4943774;28;20297;-58
2022/10/10 08:46:39;;;;;;;1.27;1.27;;;;;;;;;;4955402;28;20230;-58
2022/10/10 08:49:12;;;;;;;1.37;1.37;;;;;;;;;;4926772;28;20223;-59
2022/10/10 08:51:38;;;;;;;1.00;1.00;;;;;;;;;;4933166;28;20309;-58
2022/10/10 08:54:03;;;;;;;1.10;1.10;;;;;;;;;;4920376;28;20228;-58
2022/10/10 08:56:30;;;;;;;0.90;0.90;;;;;;;;;;4928717;28;20325;-59
2022/10/10 08:59:14;;;;;;;1.30;1.30;;;;;;;;;;4929786;28;20227;-59
2022/10/10 09:01:40;;;;;;;1.27;1.27;;;;;;;;;;4934911;28;20223;-59
2022/10/10 09:04:06;;;;;;;1.00;1.00;;;;;;;;;;4925239;28;20231;-58
2022/10/10 09:06:41;;;;;;;1.40;1.40;;;;;;;;;;4928407;28;20234;-59
2022/10/10 09:09:19;;;;;;;1.00;1.00;;;;;;;;;;4940049;28;20316;-59
2022/10/10 09:11:46;;;;;;;0.90;0.90;;;;;;;;;;4937500;28;20237;-59
2022/10/10 09:14:21;;;;;;;0.90;0.90;;;;;;;;;;4927535;28;20715;-59
2022/10/10 09:16:52;;;;;;;0.90;0.90;;;;;;;;;;4936024;28;20241;-59
2022/10/10 09:19:23;;;;;;;0.90;0.90;;;;;;;;;;4958225;28;20226;-59
2022/10/10 09:21:50;;;;;;;0.80;0.80;;;;;;;;;;4961569;28;20240;-59
2022/10/10 09:24:17;;;;;;;0.90;0.90;;;;;;;;;;4950357;28;20795;-59
2022/10/10 09:26:48;;;;;;;0.80;0.80;;;;;;;;;;4960769;28;20255;-60
2022/10/10 09:29:23;;;;;;;0.80;0.80;;;;;;;;;;4957368;28;20256;-59
2022/10/10 09:31:53;;;;;;;1.23;1.23;;;;;;;;;;4959771;28;20379;-60
2022/10/10 09:34:28;;;;;;;1.10;1.10;;;;;;;;;;4951372;28;20261;-59
2022/10/10 09:36:59;;;;;;;1.20;1.20;;;;;;;;;;4960096;28;20545;-60
2022/10/10 09:39:25;;;;;;;0.80;0.80;;;;;;;;;;4975715;28;20226;-60
2022/10/10 09:41:53;;;;;;;0.80;0.80;;;;;;;;;;4958784;28;20226;-59
2022/10/10 09:44:20;;;;;;;0.90;0.90;;;;;;;;;;4974158;28;20665;-60
2022/10/10 09:46:46;;;;;;;1.00;1.00;;;;;;;;;;4956995;28;20681;-61
2022/10/10 09:49:13;;;;;;;0.80;0.80;;;;;;;;;;4960957;28;20218;-60
2022/10/10 09:51:39;;;;;;;0.90;0.90;;;;;;;;;;4954520;28;20860;-59
2022/10/10 09:54:06;;;;;;;1.10;1.10;;;;;;;;;;4960636;28;20611;-60
2022/10/10 09:56:34;;;;;;;1.10;1.10;;;;;;;;;;4951169;28;20229;-59
2022/10/10 09:59:00;;;;;;;1.10;1.10;;;;;;;;;;4962995;28;20677;-59
2022/10/10 10:01:27;;;;;;;1.10;1.10;;;;;;;;;;4970621;28;20229;-58
2022/10/10 10:04:16;;;;;;;1.10;1.10;;;;;;;;;;4959174;28;20849;-59
2022/10/10 10:06:43;;;;;;;1.00;1.00;;;;;;;;;;4955444;28;20324;-58
2022/10/10 10:09:11;;;;;;;1.20;1.20;;;;;;;;;;4953680;28;21218;-59
2022/10/10 10:11:40;;;;;;;1.10;1.10;;;;;;;;;;4966721;28;20260;-59
2022/10/10 10:14:06;;;;;;;1.20;1.20;;;;;;;;;;4959782;28;20242;-59
2022/10/10 10:16:33;;;;;;;1.10;1.10;;;;;;;;;;4952617;28;20641;-59
2022/10/10 10:18:59;;;;;;;1.30;1.30;;;;;;;;;;4974707;28;20737;-59
2022/10/10 10:21:25;;;;;;;1.10;1.10;;;;;;;;;;4959835;28;20226;-59
2022/10/10 10:24:00;;;;;;;1.10;1.10;;;;;;;;;;4967395;28;20347;-58
2022/10/10 10:26:33;;;;;;;1.20;1.20;;;;;;;;;;4958348;28;20232;-60
2022/10/10 10:28:59;;;;;;;1.10;1.10;;;;;;;;;;4961130;28;20228;-59
2022/10/10 10:31:37;;;;;;;1.20;1.20;;;;;;;;;;4952110;28;20237;-59
2022/10/10 10:34:10;;;;;;;1.10;1.10;;;;;;;;;;4962950;28;20232;-59
2022/10/10 10:36:36;;;;;;;1.10;1.10;;;;;;;;;;4959493;28;20277;-59
2022/10/10 10:39:02;;;;;;;0.90;0.90;;;;;;;;;;4964889;28;20219;-59
2022/10/10 10:41:28;;;;;;;1.20;1.20;;;;;;;;;;4958877;28;20236;-59
2022/10/10 10:43:54;;;;;;;1.10;1.10;;;;;;;;;;4952994;28;20242;-59
2022/10/10 10:46:20;;;;;;;1.20;1.20;;;;;;;;;;4960091;28;20298;-61
2022/10/10 10:48:46;;;;;;;1.10;1.10;;;;;;;;;;4948258;28;20625;-60
2022/10/10 10:51:31;;;;;;;1.00;1.00;;;;;;;;;;4949822;28;21155;-59
2022/10/10 10:53:57;;;;;;;0.80;0.80;;;;;;;;;;4956274;28;20382;-59
2022/10/10 10:56:23;;;;;;;0.70;0.70;;;;;;;;;;4965054;28;20274;-59
2022/10/10 10:58:51;;;;;;;0.80;0.80;;;;;;;;;;4970446;28;20578;-59
2022/10/10 11:01:33;;;;;;;0.80;0.80;;;;;;;;;;4958086;28;20226;-59
2022/10/10 11:03:59;;;;;;;0.80;0.80;;;;;;;;;;4956751;28;21154;-60
2022/10/10 11:06:44;;;;;;;0.80;0.80;;;;;;;;;;4972910;28;20265;-60
2022/10/10 11:09:13;;;;;;;0.73;0.73;;;;;;;;;;4966537;28;20695;-60
2022/10/10 11:11:48;;;;;;;0.70;0.70;;;;;;;;;;4954265;28;20312;-59
2022/10/10 11:14:33;;;;;;;0.70;0.70;;;;;;;;;;4956336;28;20234;-59
2022/10/10 11:17:07;;;;;;;0.70;0.70;;;;;;;;;;4969838;28;20238;-60
2022/10/10 11:19:55;;;;;;;0.80;0.80;;;;;;;;;;4960760;28;20218;-60
2022/10/10 11:22:21;;;;;;;0.80;0.80;;;;;;;;;;4964241;28;20265;-60
2022/10/10 11:24:55;;;;;;;0.80;0.80;;;;;;;;;;4965279;28;20226;-59
2022/10/10 11:27:22;;;;;;;0.90;0.90;;;;;;;;;;4959232;28;20627;-59
2022/10/10 11:29:48;;;;;;;0.80;0.80;;;;;;;;;;4952087;28;20626;-59
2022/10/10 11:32:16;;;;;;;0.85;0.85;;;;;;;;;;4958479;28;20227;-59
2022/10/10 11:34:43;;;;;;;0.80;0.80;;;;;;;;;;4964777;28;20228;-59
2022/10/10 11:37:14;;;;;;;0.80;0.80;;;;;;;;;;4967946;28;20220;-59
2022/10/10 11:40:00;;;;;;;0.80;0.80;;;;;;;;;;4955811;28;20344;-60
2022/10/10 11:42:33;;;;;;;0.70;0.70;;;;;;;;;;4969760;28;20646;-59
2022/10/10 11:44:59;;;;;;;0.77;0.77;;;;;;;;;;4950052;28;20310;-59
2022/10/10 11:47:32;;;;;;;0.80;0.80;;;;;;;;;;4951741;28;20229;-59
2022/10/10 11:50:17;;;;;;;0.80;0.80;;;;;;;;;;4961097;28;20769;-59
2022/10/10 11:52:47;;;;;;;0.80;0.80;;;;;;;;;;4960677;28;20604;-58
2022/10/10 11:55:18;;;;;;;0.88;0.88;;;;;;;;;;4955191;28;20649;-60
2022/10/10 11:57:54;;;;;;;0.80;0.80;;;;;;;;;;4944619;28;20226;-58
2022/10/10 12:00:20;;;;;;;0.80;0.80;;;;;;;;;;4947028;28;20313;-59
2022/10/10 12:02:47;;;;;;;0.80;0.80;;;;;;;;;;4963315;28;20233;-59
2022/10/10 12:05:25;;;;;;;0.80;0.80;;;;;;;;;;4950032;28;20275;-59
2022/10/10 12:07:54;;;;;;;0.80;0.80;;;;;;;;;;4944988;28;20226;-59
2022/10/10 12:10:24;;;;;;;0.80;0.80;;;;;;;;;;4959130;28;21551;-59
2022/10/10 12:12:51;;;;;;;0.80;0.80;;;;;;;;;;4953047;28;20237;-58
2022/10/10 12:15:22;;;;;;;0.80;0.80;;;;;;;;;;4947699;28;20234;-59
2022/10/10 12:17:48;;;;;;;0.80;0.80;;;;;;;;;;4965834;28;20235;-59
2022/10/10 12:20:14;;;;;;;0.80;0.80;;;;;;;;;;4956209;28;20249;-58
2022/10/10 12:22:40;;;;;;;0.80;0.80;;;;;;;;;;4968146;28;20254;-59
2022/10/10 12:25:21;;;;;;;0.80;0.80;;;;;;;;;;4941597;28;20288;-59
2022/10/10 12:28:01;;;;;;;0.90;0.90;;;;;;;;;;4958457;28;20261;-58
2022/10/10 12:30:27;;;;;;;0.90;0.90;;;;;;;;;;4952912;28;20297;-58
2022/10/10 12:32:54;;;;;;;0.85;0.85;;;;;;;;;;4954085;28;20707;-59
2022/10/10 12:35:29;;;;;;;0.90;0.90;;;;;;;;;;4915104;28;20612;-58
2022/10/10 12:38:05;;;;;;;0.80;0.80;;;;;;;;;;4946380;28;20232;-59
2022/10/10 12:40:31;;;;;;;0.80;0.80;;;;;;;;;;4954353;28;20503;-59
2022/10/10 12:42:57;;;;;;;0.80;0.80;;;;;;;;;;4949463;28;20225;-59
2022/10/10 12:45:29;;;;;;;0.80;0.80;;;;;;;;;;4936083;28;20232;-59
2022/10/10 12:47:58;;;;;;;0.80;0.80;;;;;;;;;;4955511;28;20235;-59
2022/10/10 12:50:25;;;;;;;0.80;0.80;;;;;;;;;;4965595;28;20231;-59
2022/10/10 12:52:52;;;;;;;0.80;0.80;;;;;;;;;;4966566;28;20733;-59
2022/10/10 12:55:28;;;;;;;0.90;0.90;;;;;;;;;;4961343;28;20718;-58
2022/10/10 12:58:04;;;;;;;0.90;0.90;;;;;;;;;;4949156;28;20700;-59
2022/10/10 13:00:37;;;;;;;0.90;0.90;;;;;;;;;;4952576;28;20724;-59
2022/10/10 13:03:04;;;;;;;0.90;0.90;;;;;;;;;;4948968;28;20226;-59
2022/10/10 13:05:32;;;;;;;0.88;0.88;;;;;;;;;;4951386;28;20223;-59
2022/10/10 13:07:59;;;;;;;0.80;0.80;;;;;;;;;;4945340;28;20219;-59
2022/10/10 13:10:26;;;;;;;0.80;0.80;;;;;;;;;;4939836;28;20219;-59
2022/10/10 13:13:02;;;;;;;0.82;0.82;;;;;;;;;;4938921;28;20529;-59
2022/10/10 13:15:28;;;;;;;0.82;0.82;;;;;;;;;;4934898;28;20622;-59
2022/10/10 13:17:54;;;;;;;0.80;0.80;;;;;;;;;;4935105;28;20548;-59
2022/10/10 13:20:40;;;;;;;0.90;0.90;;;;;;;;;;4944849;28;20695;-59
2022/10/10 13:23:07;;;;;;;0.90;0.90;;;;;;;;;;4925246;28;20837;-59
2022/10/10 13:25:33;;;;;;;0.90;0.90;;;;;;;;;;4941882;28;20614;-59
2022/10/10 13:27:59;;;;;;;0.90;0.90;;;;;;;;;;4939067;28;22269;-59
2022/10/10 13:30:25;;;;;;;0.90;0.90;;;;;;;;;;4941131;28;20227;-59
2022/10/10 13:32:51;;;;;;;0.90;0.90;;;;;;;;;;4919423;28;20218;-59
2022/10/10 13:35:20;;;;;;;0.90;0.90;;;;;;;;;;4940707;28;20292;-59
2022/10/10 13:37:49;;;;;;;0.90;0.90;;;;;;;;;;4964000;28;20215;-60
2022/10/10 13:40:15;;;;;;;0.90;0.90;;;;;;;;;;4945716;28;20222;-59
2022/10/10 13:42:41;;;;;;;0.90;0.90;;;;;;;;;;4921346;28;20651;-59
2022/10/10 13:45:22;;;;;;;1.00;1.00;;;;;;;;;;4921324;28;20224;-60
2022/10/10 13:47:55;;;;;;;0.95;0.95;;;;;;;;;;4930354;28;20241;-60
2022/10/10 13:50:21;;;;;;;0.80;0.80;;;;;;;;;;4940158;28;20349;-60
2022/10/10 13:52:47;;;;;;;0.90;0.90;;;;;;;;;;4930261;28;21126;-59
2022/10/10 13:55:23;;;;;;;1.00;1.00;;;;;;;;;;4931429;28;20256;-60
2022/10/10 13:57:50;;;;;;;0.90;0.90;;;;;;;;;;4935654;28;20742;-59
2022/10/10 14:00:17;;;;;;;0.90;0.90;;;;;;;;;;4922794;28;20234;-60
2022/10/10 14:02:44;;;;;;;0.85;0.85;;;;;;;;;;4926913;28;20227;-59
2022/10/10 14:05:26;;;;;;;0.80;0.80;;;;;;;;;;4918076;28;20811;-59
2022/10/10 14:07:52;;;;;;;0.90;0.90;;;;;;;;;;4932671;28;20221;-59
2022/10/10 14:10:19;;;;;;;0.85;0.85;;;;;;;;;;4933967;28;20229;-59
2022/10/10 14:12:51;;;;;;;0.80;0.80;;;;;;;;;;4925500;28;20238;-59
2022/10/10 14:15:36;;;;;;;0.80;0.80;;;;;;;;;;4927486;28;20281;-59
2022/10/10 14:18:02;;;;;;;0.80;0.80;;;;;;;;;;4936128;28;20243;-59
2022/10/10 14:20:28;;;;;;;0.80;0.80;;;;;;;;;;4944217;28;20222;-61
2022/10/10 14:22:54;;;;;;;0.80;0.80;;;;;;;;;;4943675;28;20590;-59
2022/10/10 14:25:20;;;;;;;0.80;0.80;;;;;;;;;;4930764;28;20226;-59
2022/10/10 14:27:46;;;;;;;0.80;0.80;;;;;;;;;;4930040;28;20223;-59
2022/10/10 14:30:15;;;;;;;0.80;0.80;;;;;;;;;;4942149;28;20230;-60
2022/10/10 14:32:41;;;;;;;0.80;0.80;;;;;;;;;;4935692;28;20223;-58
2022/10/10 14:35:08;;;;;;;0.80;0.80;;;;;;;;;;4951542;28;20234;-59
2022/10/10 14:37:37;;;;;;;0.82;0.82;;;;;;;;;;4943839;28;20230;-59
2022/10/10 14:40:03;;;;;;;0.80;0.80;;;;;;;;;;4941598;28;20700;-59
2022/10/10 14:42:29;;;;;;;1.05;1.05;;;;;;;;;;4929084;28;20288;-59
2022/10/10 14:44:55;;;;;;;0.90;0.90;;;;;;;;;;4938242;28;20219;-58
2022/10/10 14:47:22;;;;;;;0.90;0.90;;;;;;;;;;4930110;28;21309;-58
2022/10/10 14:49:48;;;;;;;0.90;0.90;;;;;;;;;;4952075;28;20233;-58